Time;durP1;ratioP1;P1;durP2;ratioP2;P2;SDS_P1;SDS_P2;PMS_P1;PMS_P2;Temp;Humidity;BMP_temperature;BMP_pressure;BME280_temperature;BME280_humidity;BME280_pressure;Samples;Min_cycle;Max_cycle;Signal;HPM_P1;HPM_P2
2021/10/20 00:00:30;;;;;;;3.90;2.67;;;22.10;54.40;;;;;;5048880;28;20175;-78
2021/10/20 00:02:59;;;;;;;3.77;3.07;;;22.10;54.40;;;;;;5066695;28;20236;-78
2021/10/20 00:05:25;;;;;;;3.03;2.73;;;22.10;54.40;;;;;;5066036;28;20435;-78
2021/10/20 00:07:52;;;;;;;5.20;3.10;;;22.10;54.40;;;;;;5048560;28;20417;-78
2021/10/20 00:10:19;;;;;;;4.90;3.20;;;22.10;54.50;;;;;;5066364;28;20272;-79
2021/10/20 00:12:47;;;;;;;3.30;2.80;;;22.10;54.40;;;;;;5066727;28;20467;-78
2021/10/20 00:15:17;;;;;;;3.40;3.00;;;22.10;54.50;;;;;;5066518;28;20453;-78
2021/10/20 00:17:42;;;;;;;4.30;2.90;;;22.10;54.50;;;;;;5048511;28;20412;-78
2021/10/20 00:20:23;;;;;;;3.70;3.00;;;22.10;54.50;;;;;;5047717;28;20409;-78
2021/10/20 00:22:50;;;;;;;5.20;3.47;;;22.10;54.50;;;;;;5048255;28;20175;-78
2021/10/20 00:25:20;;;;;;;3.10;2.80;;;22.00;54.40;;;;;;5048533;28;20437;-78
2021/10/20 00:27:46;;;;;;;4.83;2.67;;;22.00;54.40;;;;;;5048286;28;20942;-78
2021/10/20 00:30:14;;;;;;;3.43;2.87;;;22.00;54.40;;;;;;5048038;28;20418;-78
2021/10/20 00:32:40;;;;;;;3.17;2.60;;;22.00;54.40;;;;;;5065822;28;20916;-78
2021/10/20 00:35:06;;;;;;;3.53;3.20;;;22.00;54.40;;;;;;5048000;28;20457;-78
2021/10/20 00:37:32;;;;;;;3.20;2.90;;;22.00;54.40;;;;;;5047242;28;20417;-78
2021/10/20 00:39:58;;;;;;;3.20;2.90;;;22.00;54.40;;;;;;5072112;28;20436;-78
2021/10/20 00:42:24;;;;;;;2.67;2.47;;;22.10;54.50;;;;;;5047354;28;20179;-78
2021/10/20 00:44:59;;;;;;;3.50;3.00;;;22.00;54.40;;;;;;5063296;28;20190;-79
2021/10/20 00:47:28;;;;;;;2.80;2.40;;;22.00;54.40;;;;;;5071327;28;20179;-79
2021/10/20 00:49:54;;;;;;;2.80;2.47;;;22.00;54.40;;;;;;5057388;28;20417;-79
2021/10/20 00:52:24;;;;;;;4.07;2.80;;;22.00;54.40;;;;;;5081634;28;20416;-79
2021/10/20 00:54:53;;;;;;;2.90;2.60;;;22.00;54.40;;;;;;5056719;28;20425;-79
2021/10/20 00:57:22;;;;;;;5.00;3.53;;;22.00;54.40;;;;;;5081666;28;20425;-79
2021/10/20 00:59:49;;;;;;;3.40;3.00;;;22.00;54.40;;;;;;5064066;28;20427;-79
2021/10/20 01:02:15;;;;;;;3.43;2.87;;;22.00;54.40;;;;;;5071442;28;20462;-78
2021/10/20 01:04:41;;;;;;;3.23;2.80;;;22.00;54.40;;;;;;5056579;28;20425;-79
2021/10/20 01:07:08;;;;;;;5.37;3.40;;;22.00;54.40;;;;;;5087347;28;20436;-79
2021/10/20 01:09:36;;;;;;;2.90;2.60;;;22.00;54.40;;;;;;5076539;28;20416;-79
2021/10/20 01:12:04;;;;;;;3.53;2.60;;;22.00;54.40;;;;;;5052174;28;20428;-79
2021/10/20 01:14:30;;;;;;;2.40;2.20;;;22.00;54.40;;;;;;5058337;28;20421;-79
2021/10/20 01:16:57;;;;;;;5.50;3.10;;;22.00;54.40;;;;;;5070002;28;20473;-79
2021/10/20 01:19:23;;;;;;;3.90;2.80;;;22.00;54.50;;;;;;5056703;28;20458;-79
2021/10/20 01:21:51;;;;;;;5.07;3.10;;;22.00;54.50;;;;;;5061642;28;20416;-79
2021/10/20 01:24:19;;;;;;;6.07;2.93;;;22.00;54.50;;;;;;5093876;28;20413;-79
2021/10/20 01:26:53;;;;;;;2.77;2.43;;;22.00;54.50;;;;;;5055400;28;20440;-79
2021/10/20 01:29:20;;;;;;;2.93;2.73;;;22.00;54.50;;;;;;5056353;28;20418;-79
2021/10/20 01:31:50;;;;;;;3.80;2.70;;;22.00;54.50;;;;;;5039645;28;20417;-79
2021/10/20 01:34:16;;;;;;;3.40;2.70;;;22.00;54.50;;;;;;5040226;28;20426;-79
2021/10/20 01:36:44;;;;;;;2.60;2.40;;;22.00;54.50;;;;;;5055686;28;20460;-79
2021/10/20 01:39:12;;;;;;;3.97;2.40;;;22.00;54.50;;;;;;5047860;28;20468;-79
2021/10/20 01:41:38;;;;;;;2.97;2.50;;;22.00;54.50;;;;;;5042222;28;20488;-79
2021/10/20 01:44:06;;;;;;;3.90;3.00;;;22.00;54.60;;;;;;5059980;28;20448;-79
2021/10/20 01:46:32;;;;;;;3.03;2.70;;;22.00;54.50;;;;;;5082989;28;20472;-79
2021/10/20 01:48:58;;;;;;;2.50;2.30;;;22.00;54.50;;;;;;5073774;28;20421;-79
2021/10/20 01:51:25;;;;;;;3.23;2.93;;;22.00;54.50;;;;;;5074077;28;20413;-79
2021/10/20 01:53:51;;;;;;;2.83;2.50;;;22.00;54.50;;;;;;5074545;28;20424;-79
2021/10/20 01:56:18;;;;;;;3.80;2.57;;;22.00;54.50;;;;;;5073953;28;20492;-79
2021/10/20 01:58:47;;;;;;;3.27;2.40;;;22.00;54.50;;;;;;5055374;28;20246;-79
2021/10/20 02:01:13;;;;;;;2.83;2.37;;;22.00;54.50;;;;;;5072862;28;20409;-79
2021/10/20 02:03:41;;;;;;;3.90;3.07;;;22.00;54.50;;;;;;5055131;28;20438;-79
2021/10/20 02:06:15;;;;;;;4.00;2.80;;;22.00;54.60;;;;;;5043608;28;20441;-79
2021/10/20 02:08:53;;;;;;;2.40;2.20;;;22.00;54.60;;;;;;5054261;28;20374;-79
2021/10/20 02:11:19;;;;;;;2.43;2.23;;;22.00;54.60;;;;;;5034309;28;20414;-79
2021/10/20 02:13:46;;;;;;;2.13;1.93;;;22.00;54.60;;;;;;5054427;28;20407;-79
2021/10/20 02:16:12;;;;;;;3.03;2.50;;;22.00;54.60;;;;;;5054407;28;20450;-79
2021/10/20 02:18:38;;;;;;;3.23;2.23;;;22.00;54.60;;;;;;5036719;28;20426;-79
2021/10/20 02:21:04;;;;;;;2.57;2.20;;;22.00;54.60;;;;;;5053926;28;20172;-79
2021/10/20 02:23:31;;;;;;;3.43;2.30;;;22.00;54.60;;;;;;5037065;28;20657;-79
2021/10/20 02:25:57;;;;;;;4.73;2.63;;;22.00;54.60;;;;;;5036942;28;20426;-79
2021/10/20 02:28:25;;;;;;;3.30;2.60;;;22.00;54.60;;;;;;5036613;28;20442;-79
2021/10/20 02:30:51;;;;;;;3.77;2.60;;;22.00;54.60;;;;;;5036325;28;20430;-79
2021/10/20 02:33:17;;;;;;;2.50;2.20;;;22.00;54.60;;;;;;5019509;28;20432;-79
2021/10/20 02:35:47;;;;;;;2.60;2.17;;;22.00;54.60;;;;;;5003309;28;20501;-79
2021/10/20 02:38:13;;;;;;;2.83;2.63;;;22.00;54.60;;;;;;5053417;28;20411;-79
2021/10/20 02:40:40;;;;;;;2.53;2.30;;;22.00;54.60;;;;;;5053072;28;20414;-79
2021/10/20 02:43:06;;;;;;;3.97;2.40;;;21.90;54.60;;;;;;5071011;28;20426;-81
2021/10/20 02:45:32;;;;;;;2.40;2.20;;;21.90;54.60;;;;;;5074951;28;20436;-80
2021/10/20 02:47:57;;;;;;;3.43;2.70;;;22.00;54.60;;;;;;5061917;28;20246;-80
2021/10/20 02:50:29;;;;;;;3.73;2.47;;;21.90;54.60;;;;;;5094706;28;20201;-81
2021/10/20 02:52:56;;;;;;;2.50;2.30;;;21.90;54.60;;;;;;5094742;28;20218;-80
2021/10/20 02:55:22;;;;;;;2.60;2.30;;;21.90;54.60;;;;;;5094268;28;20444;-80
2021/10/20 02:57:48;;;;;;;3.53;3.17;;;21.90;54.60;;;;;;5076837;28;20427;-80
2021/10/20 03:00:14;;;;;;;2.63;2.43;;;21.90;54.60;;;;;;5094201;28;20472;-79
2021/10/20 03:02:40;;;;;;;3.37;2.57;;;21.90;54.60;;;;;;5094066;28;20182;-81
2021/10/20 03:05:08;;;;;;;2.70;2.40;;;21.90;54.60;;;;;;5075982;28;20440;-80
2021/10/20 03:07:34;;;;;;;2.70;2.40;;;21.90;54.60;;;;;;5064153;28;20429;-80
2021/10/20 03:10:00;;;;;;;3.80;3.00;;;22.00;54.60;;;;;;5073804;28;20402;-80
2021/10/20 03:12:26;;;;;;;3.27;2.37;;;22.00;54.60;;;;;;5065736;28;20428;-80
2021/10/20 03:14:52;;;;;;;3.57;2.73;;;21.90;54.60;;;;;;5080996;28;20433;-80
2021/10/20 03:17:18;;;;;;;3.00;2.30;;;22.00;54.60;;;;;;5055258;28;20163;-80
2021/10/20 03:19:44;;;;;;;5.60;2.67;;;21.90;54.50;;;;;;5055243;28;20182;-81
2021/10/20 03:22:11;;;;;;;3.13;2.63;;;22.00;54.60;;;;;;5073142;28;20167;-81
2021/10/20 03:24:39;;;;;;;3.00;2.17;;;22.00;54.60;;;;;;5056435;28;20485;-80
2021/10/20 03:27:05;;;;;;;2.33;2.13;;;22.00;54.60;;;;;;5072994;28;20405;-80
2021/10/20 03:29:31;;;;;;;2.97;2.30;;;22.00;54.60;;;;;;5073668;28;20416;-80
2021/10/20 03:31:57;;;;;;;3.80;2.00;;;22.00;54.60;;;;;;5073912;28;20174;-80
2021/10/20 03:34:22;;;;;;;2.40;2.10;;;22.00;54.60;;;;;;5073417;28;20178;-80
2021/10/20 03:36:48;;;;;;;4.27;2.70;;;22.00;54.60;;;;;;5056413;28;20207;-79
2021/10/20 03:39:15;;;;;;;2.90;2.53;;;22.00;54.60;;;;;;5055864;28;20226;-81
2021/10/20 03:41:41;;;;;;;3.10;2.80;;;21.90;54.50;;;;;;5073733;28;20172;-81
2021/10/20 03:44:07;;;;;;;2.80;2.10;;;21.90;54.50;;;;;;5063471;28;20500;-80
2021/10/20 03:46:33;;;;;;;2.63;1.90;;;22.00;54.60;;;;;;5083384;28;20421;-81
2021/10/20 03:48:59;;;;;;;2.90;2.20;;;22.00;54.60;;;;;;5073040;28;20412;-80
2021/10/20 03:51:25;;;;;;;3.40;2.00;;;22.00;54.60;;;;;;5073352;28;20417;-80
2021/10/20 03:57:13;;;;;;;2.40;2.20;;;22.00;54.60;;;;;;5052565;28;20228;-81
2021/10/20 03:59:41;;;;;;;2.83;2.37;;;21.90;54.60;;;;;;5055203;28;20421;-80
2021/10/20 04:02:06;;;;;;;3.00;2.30;;;21.90;54.60;;;;;;5055419;28;20441;-80
2021/10/20 04:04:32;;;;;;;3.60;2.30;;;21.90;54.60;;;;;;5072678;28;20446;-80
2021/10/20 04:06:58;;;;;;;2.37;2.10;;;21.90;54.60;;;;;;5072468;28;20174;-80
2021/10/20 04:09:24;;;;;;;2.80;2.20;;;21.90;54.60;;;;;;5054843;28;20178;-80
2021/10/20 04:11:49;;;;;;;2.80;2.50;;;21.90;54.60;;;;;;5073977;28;20197;-80
2021/10/20 04:14:15;;;;;;;2.60;2.00;;;21.90;54.60;;;;;;5056125;28;20174;-79
2021/10/20 04:16:41;;;;;;;2.20;2.00;;;21.90;54.60;;;;;;5073746;28;20198;-80
2021/10/20 04:19:07;;;;;;;2.87;2.40;;;21.90;54.60;;;;;;5056080;28;20425;-80
2021/10/20 04:21:38;;;;;;;2.70;2.50;;;21.90;54.60;;;;;;5073517;28;20171;-80
2021/10/20 04:24:04;;;;;;;2.60;2.00;;;21.90;54.60;;;;;;5059174;28;20194;-80
2021/10/20 04:26:30;;;;;;;2.40;1.83;;;21.90;54.60;;;;;;5059813;28;20421;-79
2021/10/20 04:28:56;;;;;;;2.90;1.93;;;21.90;54.60;;;;;;5060119;28;20401;-80
2021/10/20 04:31:29;;;;;;;2.13;1.93;;;21.90;55.20;;;;;;5084634;28;20209;-81
2021/10/20 04:33:55;;;;;;;2.70;1.90;;;22.00;54.70;;;;;;5058033;28;20160;-79
2021/10/20 04:36:20;;;;;;;2.67;1.90;;;21.90;54.60;;;;;;5058582;28;20433;-81
2021/10/20 04:38:46;;;;;;;2.63;1.87;;;21.90;54.60;;;;;;5060655;28;20163;-80
2021/10/20 04:41:12;;;;;;;2.77;2.33;;;21.90;54.60;;;;;;5081061;28;20181;-80
2021/10/20 04:43:38;;;;;;;2.50;2.07;;;21.90;54.50;;;;;;5077681;28;20708;-80
2021/10/20 04:46:04;;;;;;;2.80;1.93;;;21.90;54.60;;;;;;5065561;28;20171;-80
2021/10/20 04:48:29;;;;;;;4.00;2.47;;;22.00;55.10;;;;;;5060489;28;20186;-80
2021/10/20 04:50:55;;;;;;;2.00;1.80;;;22.00;54.60;;;;;;5082082;28;20586;-81
2021/10/20 04:53:23;;;;;;;4.40;2.50;;;22.00;54.50;;;;;;5097018;28;20170;-80
2021/10/20 04:55:49;;;;;;;2.93;2.13;;;22.00;54.50;;;;;;5080198;28;20193;-81
2021/10/20 04:58:15;;;;;;;2.03;1.80;;;22.00;54.50;;;;;;5097822;28;20409;-80
2021/10/20 05:00:43;;;;;;;2.47;2.27;;;22.00;54.40;;;;;;5079156;28;20210;-80
2021/10/20 05:03:09;;;;;;;2.33;1.90;;;22.00;54.40;;;;;;5097261;28;20182;-80
2021/10/20 05:05:35;;;;;;;2.07;1.87;;;22.00;54.40;;;;;;5088553;28;20423;-80
2021/10/20 05:08:00;;;;;;;2.90;2.10;;;22.10;54.50;;;;;;5078098;28;20206;-80
2021/10/20 05:10:27;;;;;;;2.23;2.03;;;22.10;54.50;;;;;;5067698;28;20250;-80
2021/10/20 05:12:54;;;;;;;5.20;1.93;;;22.10;54.50;;;;;;5079843;28;20190;-80
2021/10/20 05:15:20;;;;;;;2.30;2.00;;;22.10;54.40;;;;;;5064116;28;20528;-81
2021/10/20 05:17:47;;;;;;;2.53;2.33;;;22.10;54.40;;;;;;5076030;28;20418;-81
2021/10/20 05:20:15;;;;;;;2.23;1.90;;;22.10;54.40;;;;;;5058326;28;20409;-80
2021/10/20 05:22:42;;;;;;;1.80;1.60;;;22.10;54.40;;;;;;5058649;28;20401;-80
2021/10/20 05:25:12;;;;;;;2.03;1.80;;;22.10;54.40;;;;;;5059695;28;20452;-79
2021/10/20 05:27:38;;;;;;;2.40;2.20;;;22.10;54.40;;;;;;5058628;28;20448;-80
2021/10/20 05:30:05;;;;;;;1.70;1.60;;;22.10;54.40;;;;;;5076676;28;20484;-80
2021/10/20 05:32:31;;;;;;;2.10;1.90;;;22.10;54.40;;;;;;5059238;28;20410;-80
2021/10/20 05:34:57;;;;;;;2.27;2.07;;;22.10;54.40;;;;;;5076449;28;20409;-79
2021/10/20 05:37:23;;;;;;;3.67;1.97;;;22.10;54.40;;;;;;5076484;28;20871;-80
2021/10/20 05:39:49;;;;;;;3.90;1.90;;;22.10;54.40;;;;;;5076788;28;20413;-80
2021/10/20 05:42:15;;;;;;;1.60;1.50;;;22.10;54.30;;;;;;5092914;28;20178;-80
2021/10/20 05:44:41;;;;;;;1.93;1.57;;;22.10;54.40;;;;;;5096514;28;20190;-80
2021/10/20 05:47:07;;;;;;;2.27;1.80;;;22.20;54.40;;;;;;5079249;28;20431;-80
2021/10/20 05:49:33;;;;;;;2.13;1.93;;;22.10;54.40;;;;;;5096783;28;20177;-80
2021/10/20 05:51:58;;;;;;;2.33;1.97;;;22.10;54.40;;;;;;5059465;28;20242;-81
2021/10/20 05:54:24;;;;;;;2.50;1.90;;;22.10;54.40;;;;;;5071001;28;20175;-80
2021/10/20 05:56:50;;;;;;;2.23;1.90;;;22.10;54.40;;;;;;5055805;28;20207;-80
2021/10/20 05:59:21;;;;;;;1.73;1.60;;;22.10;54.40;;;;;;5039105;28;20179;-80
2021/10/20 06:01:47;;;;;;;2.50;1.93;;;22.10;54.50;;;;;;5056044;28;20171;-80
2021/10/20 06:04:13;;;;;;;2.73;1.80;;;22.10;54.50;;;;;;5038579;28;20419;-80
2021/10/20 06:06:39;;;;;;;2.50;1.90;;;22.10;54.50;;;;;;5055170;28;20424;-80
2021/10/20 06:09:05;;;;;;;2.23;2.00;;;22.10;54.40;;;;;;5078773;28;20413;-80
2021/10/20 06:11:30;;;;;;;2.03;1.83;;;22.10;54.40;;;;;;5076270;28;20179;-80
2021/10/20 06:13:59;;;;;;;2.13;1.90;;;22.10;54.40;;;;;;5078302;28;20186;-80
2021/10/20 06:16:25;;;;;;;2.47;1.83;;;22.10;54.40;;;;;;5055964;28;20195;-81
2021/10/20 06:18:51;;;;;;;2.37;1.87;;;22.10;54.40;;;;;;5053673;28;20437;-80
2021/10/20 06:21:16;;;;;;;3.83;2.20;;;22.10;54.40;;;;;;5044028;28;20182;-81
2021/10/20 06:23:42;;;;;;;2.90;1.97;;;22.10;54.40;;;;;;5084375;28;20230;-83
2021/10/20 06:26:08;;;;;;;2.00;1.80;;;22.10;54.40;;;;;;5081076;28;20186;-80
2021/10/20 06:28:34;;;;;;;2.20;1.73;;;22.10;54.40;;;;;;5062847;28;20193;-80
2021/10/20 06:31:00;;;;;;;3.33;1.73;;;22.10;54.40;;;;;;5065072;28;20183;-80
2021/10/20 06:33:26;;;;;;;2.97;1.83;;;22.10;54.30;;;;;;5065716;28;20425;-80
2021/10/20 06:35:54;;;;;;;2.03;1.80;;;22.20;54.40;;;;;;5083675;28;20273;-80
2021/10/20 06:38:20;;;;;;;2.77;1.97;;;22.20;54.40;;;;;;5082634;28;20425;-81
2021/10/20 06:40:46;;;;;;;2.17;1.97;;;22.20;54.40;;;;;;5063120;28;20405;-82
2021/10/20 06:43:12;;;;;;;2.17;1.97;;;22.20;54.40;;;;;;5064288;28;20417;-80
2021/10/20 06:45:38;;;;;;;2.50;1.90;;;22.20;54.40;;;;;;5066530;28;20194;-81
2021/10/20 06:48:05;;;;;;;2.30;2.03;;;22.20;54.40;;;;;;5082163;28;20170;-81
2021/10/20 06:50:31;;;;;;;2.67;1.90;;;22.20;54.30;;;;;;5066357;28;20202;-80
2021/10/20 06:52:57;;;;;;;2.30;1.90;;;22.20;54.30;;;;;;5082542;28;20415;-80
2021/10/20 06:55:23;;;;;;;1.80;1.70;;;22.20;54.30;;;;;;5060555;28;20816;-81
2021/10/20 06:57:57;;;;;;;2.80;1.93;;;22.20;54.30;;;;;;5083456;28;20206;-81
2021/10/20 07:00:26;;;;;;;2.43;2.00;;;22.20;54.30;;;;;;5081957;28;20174;-81
2021/10/20 07:02:52;;;;;;;2.03;1.77;;;22.20;54.30;;;;;;5066072;28;20437;-80
2021/10/20 07:05:17;;;;;;;2.30;1.97;;;22.20;54.30;;;;;;5064702;28;20440;-80
2021/10/20 07:07:46;;;;;;;2.70;1.90;;;22.20;54.30;;;;;;5085224;28;20175;-80
2021/10/20 07:10:11;;;;;;;2.23;1.83;;;22.20;54.30;;;;;;5063893;28;20162;-81
2021/10/20 07:12:38;;;;;;;2.40;1.73;;;22.20;54.20;;;;;;5084920;28;20416;-80
2021/10/20 07:15:04;;;;;;;3.07;2.10;;;22.20;54.20;;;;;;5078222;28;20178;-80
2021/10/20 07:17:30;;;;;;;1.80;1.50;;;22.20;54.20;;;;;;5066495;28;20440;-81
2021/10/20 07:19:56;;;;;;;2.37;1.97;;;22.20;54.20;;;;;;5083291;28;20420;-81
2021/10/20 07:22:22;;;;;;;2.70;1.93;;;22.20;54.20;;;;;;5065717;28;20175;-81
2021/10/20 07:24:47;;;;;;;2.00;1.60;;;22.20;54.20;;;;;;5067352;28;20412;-79
2021/10/20 07:27:13;;;;;;;2.00;1.67;;;22.20;54.20;;;;;;5078377;28;20175;-83
2021/10/20 07:29:40;;;;;;;2.70;2.30;;;22.20;54.20;;;;;;5071527;28;20182;-81
2021/10/20 07:32:06;;;;;;;2.53;1.97;;;22.20;54.20;;;;;;5061460;28;20183;-81
2021/10/20 07:34:32;;;;;;;2.47;1.73;;;22.20;54.20;;;;;;5073971;28;20421;-81
2021/10/20 07:36:57;;;;;;;3.53;2.03;;;22.20;54.20;;;;;;5072088;28;20472;-81
2021/10/20 07:39:56;;;;;;;1.73;1.60;;;22.20;54.20;;;;;;5052448;28;20210;-82
2021/10/20 07:42:22;;;;;;;2.27;1.80;;;22.30;54.20;;;;;;5052459;28;20214;-82
2021/10/20 07:44:48;;;;;;;2.20;1.90;;;22.20;54.20;;;;;;5052112;28;20413;-82
2021/10/20 07:47:15;;;;;;;1.60;1.50;;;22.20;54.20;;;;;;5052204;28;20194;-82
2021/10/20 07:49:41;;;;;;;2.47;2.00;;;22.20;54.20;;;;;;5044041;28;20440;-82
2021/10/20 07:52:07;;;;;;;1.70;1.60;;;22.20;54.20;;;;;;5051810;28;20421;-81
2021/10/20 07:54:33;;;;;;;1.90;1.70;;;22.30;54.30;;;;;;5051948;28;20433;-81
2021/10/20 07:56:58;;;;;;;1.70;1.40;;;22.20;54.20;;;;;;5069110;28;20684;-81
2021/10/20 07:59:25;;;;;;;1.87;1.67;;;22.30;54.20;;;;;;5068992;28;20513;-82
2021/10/20 08:01:50;;;;;;;1.90;1.50;;;22.30;54.20;;;;;;5051236;28;20199;-81
2021/10/20 08:04:17;;;;;;;2.00;1.80;;;22.30;54.20;;;;;;5068956;28;20424;-81
2021/10/20 08:06:43;;;;;;;2.53;1.77;;;22.30;54.30;;;;;;5051435;28;20189;-81
2021/10/20 08:09:10;;;;;;;1.97;1.60;;;22.20;54.10;;;;;;5063896;28;20399;-81
2021/10/20 08:11:36;;;;;;;1.90;1.70;;;22.30;54.20;;;;;;5049742;28;20187;-81
2021/10/20 08:14:03;;;;;;;1.70;1.50;;;22.30;54.20;;;;;;5051320;28;20456;-82
2021/10/20 08:16:30;;;;;;;1.90;1.73;;;22.30;54.20;;;;;;5051427;28;20221;-82
2021/10/20 08:18:56;;;;;;;1.77;1.60;;;22.30;54.20;;;;;;5051424;28;21017;-82
2021/10/20 08:21:22;;;;;;;1.80;1.50;;;22.30;54.20;;;;;;5048866;28;20429;-82
2021/10/20 08:23:50;;;;;;;2.00;1.70;;;22.30;54.20;;;;;;5069258;28;20222;-83
2021/10/20 08:26:18;;;;;;;4.00;1.60;;;22.30;54.20;;;;;;5067028;28;20220;-82
2021/10/20 08:28:44;;;;;;;6.53;2.40;;;22.30;54.30;;;;;;5057366;28;20482;-83
2021/10/20 08:31:11;;;;;;;2.00;1.80;;;22.40;54.40;;;;;;5072447;28;20449;-83
2021/10/20 08:33:39;;;;;;;2.63;2.10;;;22.40;54.30;;;;;;5055310;28;20183;-83
2021/10/20 08:36:06;;;;;;;3.50;2.83;;;22.40;54.20;;;;;;5072410;28;20528;-83
2021/10/20 08:38:32;;;;;;;4.40;2.93;;;22.40;54.20;;;;;;5054396;28;20421;-83
2021/10/20 08:40:58;;;;;;;9.53;3.40;;;22.40;54.10;;;;;;5053423;28;20432;-83
2021/10/20 08:43:25;;;;;;;7.20;4.50;;;22.40;54.10;;;;;;5053757;28;20418;-83
2021/10/20 08:45:51;;;;;;;6.23;4.53;;;22.40;54.10;;;;;;5057529;28;20485;-83
2021/10/20 08:48:21;;;;;;;4.83;4.33;;;22.40;54.10;;;;;;5056387;28;20421;-83
2021/10/20 08:50:55;;;;;;;6.30;4.53;;;22.50;54.20;;;;;;5055726;28;20452;-83
2021/10/20 08:53:23;;;;;;;5.23;4.73;;;22.50;54.20;;;;;;5077717;28;20440;-83
2021/10/20 08:55:53;;;;;;;4.70;3.93;;;22.50;54.20;;;;;;5059635;28;20449;-84
2021/10/20 08:58:22;;;;;;;5.37;4.60;;;22.50;54.20;;;;;;5056212;28;20417;-84
2021/10/20 09:00:48;;;;;;;5.70;4.67;;;22.50;54.20;;;;;;5067823;28;20413;-84
2021/10/20 09:03:15;;;;;;;4.60;4.10;;;22.50;54.20;;;;;;5071293;28;20452;-83
2021/10/20 09:05:41;;;;;;;5.10;4.00;;;22.50;54.20;;;;;;5055048;28;20428;-84
2021/10/20 09:08:08;;;;;;;4.17;3.77;;;22.50;54.20;;;;;;5050562;28;20406;-83
2021/10/20 09:10:33;;;;;;;4.67;3.87;;;22.50;54.20;;;;;;5055888;28;20860;-83
2021/10/20 09:13:01;;;;;;;6.10;3.90;;;22.50;54.20;;;;;;5050929;28;20406;-83
2021/10/20 09:15:34;;;;;;;4.60;3.20;;;22.50;54.20;;;;;;5054521;28;20205;-83
2021/10/20 09:18:09;;;;;;;4.97;3.80;;;22.60;54.20;;;;;;5050781;28;20801;-83
2021/10/20 09:20:41;;;;;;;5.93;3.93;;;22.60;54.20;;;;;;5073525;28;20413;-83
2021/10/20 09:23:14;;;;;;;5.93;3.37;;;22.60;54.20;;;;;;5053494;28;20420;-83
2021/10/20 09:26:08;;;;;;;4.40;3.83;;;22.60;54.20;;;;;;5074158;28;20429;-82
2021/10/20 09:28:37;;;;;;;3.30;3.00;;;22.60;54.30;;;;;;5073433;28;20471;-82
2021/10/20 09:31:07;;;;;;;4.60;3.40;;;22.60;54.30;;;;;;5055164;28;20432;-82
2021/10/20 09:33:40;;;;;;;4.43;3.30;;;22.60;54.30;;;;;;5071899;28;20435;-83
2021/10/20 09:36:14;;;;;;;4.40;3.57;;;22.60;54.30;;;;;;5054444;28;20461;-83
2021/10/20 09:39:02;;;;;;;6.20;3.10;;;22.60;54.30;;;;;;5010825;28;20408;-83
2021/10/20 09:41:28;;;;;;;3.87;3.50;;;22.60;54.30;;;;;;5051104;28;20489;-83
2021/10/20 09:43:57;;;;;;;5.10;3.80;;;22.60;54.30;;;;;;5053731;28;20422;-83
2021/10/20 09:46:43;;;;;;;3.77;3.03;;;22.60;54.30;;;;;;5053973;28;20183;-83
2021/10/20 09:49:23;;;;;;;6.07;3.70;;;22.60;54.30;;;;;;5069827;28;20480;-81
2021/10/20 09:51:58;;;;;;;5.47;3.60;;;22.60;54.30;;;;;;5036694;28;20444;-81
2021/10/20 09:54:27;;;;;;;5.07;3.10;;;22.60;54.30;;;;;;5043745;28;20425;-80
2021/10/20 09:56:57;;;;;;;3.93;3.17;;;22.60;54.30;;;;;;5077365;28;20456;-80
2021/10/20 09:59:28;;;;;;;4.17;3.20;;;22.60;54.30;;;;;;5063176;28;20421;-80
2021/10/20 10:01:54;;;;;;;3.13;2.80;;;22.60;54.30;;;;;;5060712;28;20983;-80
2021/10/20 10:04:20;;;;;;;4.30;2.73;;;22.60;54.30;;;;;;5062661;28;20489;-80
2021/10/20 10:06:49;;;;;;;3.33;3.00;;;22.60;54.30;;;;;;5057670;28;20442;-80
2021/10/20 10:09:17;;;;;;;3.20;2.80;;;22.60;54.30;;;;;;5071353;28;20428;-80
2021/10/20 10:12:13;;;;;;;4.13;2.80;;;22.60;54.30;;;;;;5051906;28;20453;-80
2021/10/20 10:14:45;;;;;;;3.40;2.80;;;22.70;54.40;;;;;;5075474;28;20421;-80
2021/10/20 10:20:40;;;;;;;4.23;2.93;;;22.70;54.30;;;;;;5069692;28;20457;-79
2021/10/20 10:23:16;;;;;;;3.33;2.90;;;22.60;54.30;;;;;;5034596;28;20861;-80
2021/10/20 10:25:42;;;;;;;3.10;2.67;;;22.60;54.30;;;;;;5049086;28;20491;-79
2021/10/20 10:28:22;;;;;;;3.73;2.80;;;22.60;54.30;;;;;;5060495;28;20433;-79
2021/10/20 10:30:49;;;;;;;3.90;3.13;;;22.60;54.70;;;;;;5052246;28;20240;-80
2021/10/20 10:33:20;;;;;;;2.93;2.63;;;22.60;54.20;;;;;;5062269;28;20437;-80
2021/10/20 10:36:23;;;;;;;2.63;2.43;;;22.60;54.20;;;;;;5052465;28;20901;-80
2021/10/20 10:38:48;;;;;;;4.23;2.60;;;22.60;54.20;;;;;;5069685;28;20436;-79
2021/10/20 10:41:22;;;;;;;3.70;2.33;;;22.50;54.20;;;;;;5052610;28;20455;-80
2021/10/20 10:44:04;;;;;;;7.27;3.30;;;22.60;54.30;;;;;;5051994;28;20179;-80
2021/10/20 10:46:40;;;;;;;3.37;2.50;;;22.60;54.30;;;;;;5062242;28;20479;-80
2021/10/20 10:49:25;;;;;;;3.33;2.53;;;22.50;54.20;;;;;;5069851;28;20428;-82
2021/10/20 10:52:06;;;;;;;3.47;2.70;;;22.60;54.30;;;;;;5052989;28;20444;-82
2021/10/20 10:54:40;;;;;;;3.37;2.37;;;22.50;54.20;;;;;;5053070;28;20432;-82
2021/10/20 10:57:15;;;;;;;4.00;2.83;;;22.50;54.20;;;;;;5035878;28;20457;-82
2021/10/20 11:00:08;;;;;;;4.70;2.73;;;22.50;54.20;;;;;;5058439;28;20426;-82
2021/10/20 11:02:52;;;;;;;3.20;2.40;;;22.50;54.20;;;;;;5059288;28;20437;-82
2021/10/20 11:05:23;;;;;;;3.70;2.53;;;22.50;54.30;;;;;;5056772;28;20452;-82
2021/10/20 11:07:51;;;;;;;5.63;3.13;;;22.50;54.30;;;;;;5062897;28;20804;-82
2021/10/20 11:10:18;;;;;;;8.00;3.30;;;22.50;54.30;;;;;;5080405;28;20820;-82
2021/10/20 11:12:48;;;;;;;4.90;3.40;;;22.40;54.20;;;;;;5066903;28;20429;-81
2021/10/20 11:15:15;;;;;;;3.90;3.17;;;22.50;54.30;;;;;;5063747;28;20461;-83
2021/10/20 11:17:41;;;;;;;3.90;3.50;;;22.50;54.30;;;;;;5018275;28;20806;-82
2021/10/20 11:20:09;;;;;;;5.50;3.80;;;22.50;54.30;;;;;;5060918;28;20412;-82
2021/10/20 11:22:36;;;;;;;5.90;3.73;;;22.50;54.30;;;;;;5081964;28;20433;-81
2021/10/20 11:25:06;;;;;;;7.63;5.13;;;22.40;54.20;;;;;;5066052;28;20413;-82
2021/10/20 11:27:34;;;;;;;8.47;5.60;;;22.40;54.20;;;;;;5061546;28;20425;-82
2021/10/20 11:30:01;;;;;;;8.00;5.23;;;22.40;54.20;;;;;;5082779;28;20443;-83
2021/10/20 11:32:27;;;;;;;5.97;4.83;;;22.40;54.20;;;;;;5081960;28;20414;-83
2021/10/20 11:34:55;;;;;;;7.10;5.60;;;22.40;54.20;;;;;;5065756;28;20421;-83
2021/10/20 11:37:24;;;;;;;10.10;6.67;;;22.40;54.20;;;;;;5061416;28;20435;-83
2021/10/20 11:39:54;;;;;;;11.67;7.27;;;22.40;54.20;;;;;;5061255;28;20414;-83
2021/10/20 11:42:21;;;;;;;10.00;6.90;;;22.40;54.20;;;;;;5051890;28;20409;-83
2021/10/20 11:44:47;;;;;;;7.87;6.80;;;22.40;54.20;;;;;;5083973;28;20413;-82
2021/10/20 11:47:37;;;;;;;9.40;6.73;;;22.40;54.20;;;;;;5064633;28;20487;-81
2021/10/20 11:50:03;;;;;;;7.50;6.23;;;22.40;54.20;;;;;;5069151;28;20417;-82
2021/10/20 11:52:33;;;;;;;12.20;7.47;;;22.40;54.20;;;;;;5067722;28;20428;-81
2021/10/20 11:54:59;;;;;;;12.40;7.57;;;22.40;54.20;;;;;;5050315;28;20452;-82
2021/10/20 11:57:25;;;;;;;9.60;6.33;;;22.40;54.20;;;;;;5049647;28;20426;-80
2021/10/20 11:59:52;;;;;;;7.70;6.23;;;22.40;54.20;;;;;;5048783;28;20183;-82
2021/10/20 12:02:18;;;;;;;10.67;6.93;;;22.40;54.20;;;;;;5066512;28;20445;-81
2021/10/20 12:04:45;;;;;;;9.10;6.93;;;22.40;54.30;;;;;;5054159;28;20425;-81
2021/10/20 12:07:16;;;;;;;10.77;6.70;;;22.30;54.20;;;;;;5040977;28;20420;-81
2021/10/20 12:09:44;;;;;;;8.00;6.33;;;22.30;54.60;;;;;;5050264;28;20413;-82
2021/10/20 12:12:11;;;;;;;8.30;6.00;;;22.30;54.20;;;;;;5051139;28;20417;-82
2021/10/20 12:14:41;;;;;;;10.10;7.33;;;22.30;54.20;;;;;;5062874;28;20448;-81
2021/10/20 12:17:09;;;;;;;7.30;6.30;;;22.30;54.20;;;;;;5049516;28;20446;-81
2021/10/20 12:19:40;;;;;;;7.07;5.90;;;22.30;54.20;;;;;;5048751;28;20426;-81
2021/10/20 12:22:13;;;;;;;7.77;5.63;;;22.30;54.20;;;;;;5042380;28;20429;-81
2021/10/20 12:24:49;;;;;;;9.60;6.87;;;22.30;54.30;;;;;;5067609;28;20406;-81
2021/10/20 12:27:16;;;;;;;8.83;6.60;;;22.30;54.20;;;;;;5049534;28;20780;-81
2021/10/20 12:30:00;;;;;;;8.93;6.37;;;22.30;54.30;;;;;;5064758;28;20436;-81
2021/10/20 12:32:39;;;;;;;8.37;6.70;;;22.30;54.30;;;;;;5048620;28;20463;-82
2021/10/20 12:35:15;;;;;;;7.97;5.90;;;22.30;54.30;;;;;;5062256;28;20899;-81
2021/10/20 12:37:48;;;;;;;8.03;6.10;;;22.30;54.30;;;;;;5048486;28;20459;-81
2021/10/20 12:40:13;;;;;;;8.93;6.97;;;22.20;54.30;;;;;;5051012;28;20421;-82
2021/10/20 12:42:58;;;;;;;8.30;5.43;;;22.20;54.30;;;;;;5049011;28;20430;-81
2021/10/20 12:45:26;;;;;;;6.63;5.13;;;22.20;54.20;;;;;;5054709;28;20201;-82
2021/10/20 12:47:58;;;;;;;9.80;6.53;;;22.20;54.30;;;;;;5053164;28;20457;-81
2021/10/20 12:50:26;;;;;;;5.53;5.00;;;22.20;54.30;;;;;;5068198;28;20463;-81
2021/10/20 12:52:53;;;;;;;6.23;5.37;;;22.20;54.40;;;;;;5051019;28;20433;-81
2021/10/20 12:55:26;;;;;;;8.63;6.30;;;22.20;54.40;;;;;;5053058;28;20454;-81
2021/10/20 12:57:57;;;;;;;8.77;6.47;;;22.20;54.40;;;;;;5052693;28;20905;-81